sensor_id;sensor_type;location;lat;lon;timestamp;pressure;altitude;pressure_sealevel;temperature;humidity
55068;BME280;40965;52.368;9.712;2024-03-06T00:01:35;101199.94;;;4.36;96.61
55068;BME280;40965;52.368;9.712;2024-03-06T00:04:03;101206.63;;;4.26;96.87
55068;BME280;40965;52.368;9.712;2024-03-06T00:06:31;101209.91;;;4.21;96.17
55068;BME280;40965;52.368;9.712;2024-03-06T00:08:59;101212.63;;;4.25;96.57
55068;BME280;40965;52.368;9.712;2024-03-06T00:11:30;101215.38;;;4.32;97.12
55068;BME280;40965;52.368;9.712;2024-03-06T00:13:57;101213.84;;;4.40;95.87
55068;BME280;40965;52.368;9.712;2024-03-06T00:16:25;101221.66;;;4.41;96.13
55068;BME280;40965;52.368;9.712;2024-03-06T00:18:52;101216.63;;;4.46;96.07
55068;BME280;40965;52.368;9.712;2024-03-06T00:21:21;101226.91;;;4.44;96.36
55068;BME280;40965;52.368;9.712;2024-03-06T00:23:48;101225.19;;;4.43;95.34
55068;BME280;40965;52.368;9.712;2024-03-06T00:26:14;101223.41;;;4.41;95.39
55068;BME280;40965;52.368;9.712;2024-03-06T00:28:43;101225.09;;;4.40;95.25
55068;BME280;40965;52.368;9.712;2024-03-06T00:31:10;101231.84;;;4.34;96.93
55068;BME280;40965;52.368;9.712;2024-03-06T00:33:42;101231.09;;;4.39;96.29
55068;BME280;40965;52.368;9.712;2024-03-06T00:36:09;101232.84;;;4.39;95.78
55068;BME280;40965;52.368;9.712;2024-03-06T00:38:36;101239.75;;;4.38;95.38
55068;BME280;40965;52.368;9.712;2024-03-06T00:41:03;101237.19;;;4.40;95.88
55068;BME280;40965;52.368;9.712;2024-03-06T00:43:29;101238.25;;;4.48;96.00
55068;BME280;40965;52.368;9.712;2024-03-06T00:45:56;101239.22;;;4.52;95.30
55068;BME280;40965;52.368;9.712;2024-03-06T00:48:28;101235.56;;;4.43;94.85
55068;BME280;40965;52.368;9.712;2024-03-06T00:50:58;101241.47;;;4.39;95.46
55068;BME280;40965;52.368;9.712;2024-03-06T00:53:24;101244.16;;;4.42;95.98
55068;BME280;40965;52.368;9.712;2024-03-06T00:55:56;101239.81;;;4.41;96.20
55068;BME280;40965;52.368;9.712;2024-03-06T00:58:23;101251.81;;;4.38;95.96
55068;BME280;40965;52.368;9.712;2024-03-06T01:00:51;101251.78;;;4.36;96.55
55068;BME280;40965;52.368;9.712;2024-03-06T01:03:17;101256.13;;;4.37;96.23
55068;BME280;40965;52.368;9.712;2024-03-06T01:05:48;101252.56;;;4.34;96.58
55068;BME280;40965;52.368;9.712;2024-03-06T01:08:16;101249.16;;;4.35;96.40
55068;BME280;40965;52.368;9.712;2024-03-06T01:10:44;101250.06;;;4.37;96.48
55068;BME280;40965;52.368;9.712;2024-03-06T01:13:11;101249.16;;;4.35;95.80
55068;BME280;40965;52.368;9.712;2024-03-06T01:15:40;101246.34;;;4.27;96.35
55068;BME280;40965;52.368;9.712;2024-03-06T01:18:07;101255.75;;;4.23;96.69
55068;BME280;40965;52.368;9.712;2024-03-06T01:20:34;101257.78;;;4.35;96.35
55068;BME280;40965;52.368;9.712;2024-03-06T01:23:01;101262.06;;;4.33;96.37
55068;BME280;40965;52.368;9.712;2024-03-06T01:25:29;101263.78;;;4.33;96.17
55068;BME280;40965;52.368;9.712;2024-03-06T01:27:56;101271.69;;;4.37;95.98
55068;BME280;40965;52.368;9.712;2024-03-06T01:30:22;101273.38;;;4.37;95.76
55068;BME280;40965;52.368;9.712;2024-03-06T01:32:49;101268.19;;;4.37;96.62
55068;BME280;40965;52.368;9.712;2024-03-06T01:35:16;101270.88;;;4.40;97.13
55068;BME280;40965;52.368;9.712;2024-03-06T01:37:43;101271.91;;;4.46;97.03
55068;BME280;40965;52.368;9.712;2024-03-06T01:40:10;101271.84;;;4.43;96.28
55068;BME280;40965;52.368;9.712;2024-03-06T01:42:40;101276.06;;;4.40;96.31
55068;BME280;40965;52.368;9.712;2024-03-06T01:45:08;101271.84;;;4.43;96.28
55068;BME280;40965;52.368;9.712;2024-03-06T01:47:35;101273.44;;;4.38;96.58
55068;BME280;40965;52.368;9.712;2024-03-06T01:50:02;101282.16;;;4.42;96.89
55068;BME280;40965;52.368;9.712;2024-03-06T01:52:31;101280.19;;;4.32;96.98
55068;BME280;40965;52.368;9.712;2024-03-06T01:54:58;101283.91;;;4.43;97.22
55068;BME280;40965;52.368;9.712;2024-03-06T01:57:24;101285.41;;;4.33;97.11
55068;BME280;40965;52.368;9.712;2024-03-06T01:59:51;101289.47;;;4.25;97.66
55068;BME280;40965;52.368;9.712;2024-03-06T02:02:20;101282.78;;;4.32;98.18
55068;BME280;40965;52.368;9.712;2024-03-06T02:04:47;101283.72;;;4.35;98.02
55068;BME280;40965;52.368;9.712;2024-03-06T02:07:20;101284.75;;;4.42;97.71
55068;BME280;40965;52.368;9.712;2024-03-06T02:09:47;101288.91;;;4.35;97.39
55068;BME280;40965;52.368;9.712;2024-03-06T02:12:14;101295.75;;;4.32;98.13
55068;BME280;40965;52.368;9.712;2024-03-06T02:14:41;101289.63;;;4.29;98.45
55068;BME280;40965;52.368;9.712;2024-03-06T02:17:10;101290.38;;;4.25;98.55
55068;BME280;40965;52.368;9.712;2024-03-06T02:19:41;101286.03;;;4.24;98.92
55068;BME280;40965;52.368;9.712;2024-03-06T05:41:50;101412.75;;;4.15;100.00
55068;BME280;40965;52.368;9.712;2024-03-06T05:44:19;101408.44;;;4.16;100.00
55068;BME280;40965;52.368;9.712;2024-03-06T05:47:47;101416.34;;;4.20;100.00
55068;BME280;40965;52.368;9.712;2024-03-06T05:50:33;101420.53;;;4.15;100.00
55068;BME280;40965;52.368;9.712;2024-03-06T05:53:17;101420.75;;;4.23;100.00
55068;BME280;40965;52.368;9.712;2024-03-06T05:55:44;101429.59;;;4.29;100.00
55068;BME280;40965;52.368;9.712;2024-03-06T05:58:14;101423.53;;;4.29;100.00
55068;BME280;40965;52.368;9.712;2024-03-06T06:00:43;101428.66;;;4.27;100.00
55068;BME280;40965;52.368;9.712;2024-03-06T06:03:10;101428.38;;;4.18;100.00
55068;BME280;40965;52.368;9.712;2024-03-06T06:05:41;101429.19;;;4.17;100.00
55068;BME280;40965;52.368;9.712;2024-03-06T06:08:07;101435.25;;;4.16;100.00
55068;BME280;40965;52.368;9.712;2024-03-06T06:10:43;101431.63;;;4.11;100.00
55068;BME280;40965;52.368;9.712;2024-03-06T06:13:09;101433.09;;;4.03;100.00
55068;BME280;40965;52.368;9.712;2024-03-06T06:15:39;101439.06;;;4.00;100.00
55068;BME280;40965;52.368;9.712;2024-03-06T06:18:06;101436.81;;;4.11;100.00
55068;BME280;40965;52.368;9.712;2024-03-06T06:20:34;101449.00;;;4.13;100.00
55068;BME280;40965;52.368;9.712;2024-03-06T06:23:03;101440.94;;;4.04;100.00
55068;BME280;40965;52.368;9.712;2024-03-06T06:25:39;101453.31;;;4.14;100.00
55068;BME280;40965;52.368;9.712;2024-03-06T06:28:06;101455.69;;;4.07;100.00
55068;BME280;40965;52.368;9.712;2024-03-06T06:30:36;101457.34;;;4.05;100.00
55068;BME280;40965;52.368;9.712;2024-03-06T06:33:04;101460.66;;;3.99;100.00
55068;BME280;40965;52.368;9.712;2024-03-06T06:35:34;101464.97;;;4.00;100.00
55068;BME280;40965;52.368;9.712;2024-03-06T06:38:05;101465.75;;;3.97;100.00
55068;BME280;40965;52.368;9.712;2024-03-06T06:40:35;101470.84;;;3.94;100.00
55068;BME280;40965;52.368;9.712;2024-03-06T06:43:22;101483.47;;;4.11;100.00
55068;BME280;40965;52.368;9.712;2024-03-06T06:45:52;101480.03;;;4.12;100.00
55068;BME280;40965;52.368;9.712;2024-03-06T06:48:33;101491.41;;;4.17;100.00
55068;BME280;40965;52.368;9.712;2024-03-06T06:51:02;101488.91;;;4.20;100.00
55068;BME280;40965;52.368;9.712;2024-03-06T06:53:33;101497.78;;;4.28;100.00
55068;BME280;40965;52.368;9.712;2024-03-06T06:56:05;101502.06;;;4.26;100.00
55068;BME280;40965;52.368;9.712;2024-03-06T06:58:40;101498.69;;;4.29;100.00
55068;BME280;40965;52.368;9.712;2024-03-06T07:01:09;101506.31;;;4.24;100.00
55068;BME280;40965;52.368;9.712;2024-03-06T07:03:36;101511.69;;;4.30;100.00
55068;BME280;40965;52.368;9.712;2024-03-06T07:06:08;101509.94;;;4.29;100.00
55068;BME280;40965;52.368;9.712;2024-03-06T07:08:37;101511.66;;;4.29;100.00
55068;BME280;40965;52.368;9.712;2024-03-06T07:11:04;101512.25;;;4.20;100.00
55068;BME280;40965;52.368;9.712;2024-03-06T07:13:33;101524.22;;;4.17;100.00
55068;BME280;40965;52.368;9.712;2024-03-06T07:16:03;101522.59;;;4.20;100.00
55068;BME280;40965;52.368;9.712;2024-03-06T07:18:36;101531.59;;;4.32;100.00
55068;BME280;40965;52.368;9.712;2024-03-06T07:21:08;101532.84;;;4.44;100.00
55068;BME280;40965;52.368;9.712;2024-03-06T07:23:41;101530.63;;;4.57;100.00
55068;BME280;40965;52.368;9.712;2024-03-06T07:26:17;101540.06;;;4.55;100.00
55068;BME280;40965;52.368;9.712;2024-03-06T07:28:46;101539.69;;;4.42;100.00
55068;BME280;40965;52.368;9.712;2024-03-06T07:31:26;101551.13;;;4.49;100.00
55068;BME280;40965;52.368;9.712;2024-03-06T07:34:09;101552.72;;;4.44;100.00
55068;BME280;40965;52.368;9.712;2024-03-06T07:36:41;101545.09;;;4.49;100.00
55068;BME280;40965;52.368;9.712;2024-03-06T07:39:16;101555.78;;;4.59;100.00
55068;BME280;40965;52.368;9.712;2024-03-06T07:41:43;101552.50;;;4.67;100.00
55068;BME280;40965;52.368;9.712;2024-03-06T07:44:12;101560.38;;;4.68;100.00
55068;BME280;40965;52.368;9.712;2024-03-06T07:46:41;101562.69;;;4.59;100.00
55068;BME280;40965;52.368;9.712;2024-03-06T07:49:23;101559.28;;;4.61;100.00
55068;BME280;40965;52.368;9.712;2024-03-06T07:52:08;101570.81;;;4.71;100.00
55068;BME280;40965;52.368;9.712;2024-03-06T07:55:10;101569.94;;;4.71;100.00
55068;BME280;40965;52.368;9.712;2024-03-06T07:57:37;101572.25;;;4.61;100.00
55068;BME280;40965;52.368;9.712;2024-03-06T08:00:06;101575.06;;;4.69;100.00
55068;BME280;40965;52.368;9.712;2024-03-06T08:02:42;101572.03;;;4.83;100.00
55068;BME280;40965;52.368;9.712;2024-03-06T08:05:12;101586.63;;;4.79;100.00
55068;BME280;40965;52.368;9.712;2024-03-06T08:07:40;101581.97;;;4.97;100.00
55068;BME280;40965;52.368;9.712;2024-03-06T08:10:12;101581.47;;;5.11;99.87
55068;BME280;40965;52.368;9.712;2024-03-06T08:12:46;101590.47;;;5.24;98.69
55068;BME280;40965;52.368;9.712;2024-03-06T08:15:16;101594.06;;;4.97;98.56
55068;BME280;40965;52.368;9.712;2024-03-06T08:17:51;101601.69;;;4.92;100.00
55068;BME280;40965;52.368;9.712;2024-03-06T08:20:17;101605.19;;;4.93;99.39
55068;BME280;40965;52.368;9.712;2024-03-06T08:22:44;101604.19;;;4.88;100.00
55068;BME280;40965;52.368;9.712;2024-03-06T08:25:16;101610.47;;;4.96;99.58
55068;BME280;40965;52.368;9.712;2024-03-06T08:27:43;101611.56;;;5.04;99.98
55068;BME280;40965;52.368;9.712;2024-03-06T08:30:15;101609.84;;;5.05;98.88
55068;BME280;40965;52.368;9.712;2024-03-06T08:32:58;101612.84;;;5.19;99.13
55068;BME280;40965;52.368;9.712;2024-03-06T08:35:26;101616.88;;;5.39;98.21
55068;BME280;40965;52.368;9.712;2024-03-06T08:37:52;101612.44;;;5.35;96.98
55068;BME280;40965;52.368;9.712;2024-03-06T08:40:21;101621.31;;;5.43;96.39
55068;BME280;40965;52.368;9.712;2024-03-06T08:42:49;101629.34;;;5.53;96.05
55068;BME280;40965;52.368;9.712;2024-03-06T08:45:17;101626.56;;;5.45;96.05
55068;BME280;40965;52.368;9.712;2024-03-06T08:47:52;101641.44;;;5.51;95.55
55068;BME280;40965;52.368;9.712;2024-03-06T08:50:20;101631.91;;;5.51;96.59
55068;BME280;40965;52.368;9.712;2024-03-06T08:52:49;101644.00;;;5.49;95.58
55068;BME280;40965;52.368;9.712;2024-03-06T08:55:19;101639.63;;;5.48;94.67
55068;BME280;40965;52.368;9.712;2024-03-06T08:57:47;101645.94;;;5.58;94.69
55068;BME280;40965;52.368;9.712;2024-03-06T09:00:16;101640.72;;;5.56;94.56
55068;BME280;40965;52.368;9.712;2024-03-06T09:02:47;101646.91;;;5.61;93.86
55068;BME280;40965;52.368;9.712;2024-03-06T09:05:15;101642.88;;;5.71;93.68
55068;BME280;40965;52.368;9.712;2024-03-06T09:07:41;101648.69;;;5.62;93.70
55068;BME280;40965;52.368;9.712;2024-03-06T09:10:09;101640.38;;;5.76;93.84
55068;BME280;40965;52.368;9.712;2024-03-06T09:12:38;101650.28;;;5.89;92.54
55068;BME280;40965;52.368;9.712;2024-03-06T09:15:06;101650.44;;;5.97;92.21
55068;BME280;40965;52.368;9.712;2024-03-06T09:17:34;101646.53;;;6.11;91.89
55068;BME280;40965;52.368;9.712;2024-03-06T09:20:01;101651.16;;;6.23;91.45
55068;BME280;40965;52.368;9.712;2024-03-06T09:22:38;101660.72;;;6.24;91.76
55068;BME280;40965;52.368;9.712;2024-03-06T09:25:07;101663.84;;;6.11;90.57
55068;BME280;40965;52.368;9.712;2024-03-06T09:27:43;101666.44;;;6.11;91.98
55068;BME280;40965;52.368;9.712;2024-03-06T09:30:16;101670.38;;;6.28;90.52
55068;BME280;40965;52.368;9.712;2024-03-06T09:32:43;101677.31;;;6.29;90.76
55068;BME280;40965;52.368;9.712;2024-03-06T09:35:14;101670.47;;;6.33;90.45
55068;BME280;40965;52.368;9.712;2024-03-06T09:37:47;101668.34;;;6.17;91.73
55068;BME280;40965;52.368;9.712;2024-03-06T09:40:21;101678.28;;;6.33;91.39
55068;BME280;40965;52.368;9.712;2024-03-06T09:42:50;101679.59;;;6.51;89.98
55068;BME280;40965;52.368;9.712;2024-03-06T09:45:17;101683.28;;;6.60;89.78
55068;BME280;40965;52.368;9.712;2024-03-06T09:47:46;101683.91;;;6.52;90.09
55068;BME280;40965;52.368;9.712;2024-03-06T09:50:23;101685.25;;;6.71;89.24
55068;BME280;40965;52.368;9.712;2024-03-06T09:52:52;101684.47;;;6.75;88.39
55068;BME280;40965;52.368;9.712;2024-03-06T09:55:24;101689.47;;;6.66;89.64
55068;BME280;40965;52.368;9.712;2024-03-06T09:57:52;101687.88;;;6.72;87.91
55068;BME280;40965;52.368;9.712;2024-03-06T10:00:22;101688.09;;;6.82;88.94
55068;BME280;40965;52.368;9.712;2024-03-06T10:02:59;101693.38;;;6.83;87.38
55068;BME280;40965;52.368;9.712;2024-03-06T10:05:26;101695.84;;;6.78;87.42
55068;BME280;40965;52.368;9.712;2024-03-06T10:07:57;101695.72;;;6.74;88.28
55068;BME280;40965;52.368;9.712;2024-03-06T10:10:24;101692.66;;;6.92;88.16
55068;BME280;40965;52.368;9.712;2024-03-06T10:12:52;101686.19;;;7.12;85.67
55068;BME280;40965;52.368;9.712;2024-03-06T10:15:20;101701.84;;;7.14;85.83
55068;BME280;40965;52.368;9.712;2024-03-06T10:18:15;101708.84;;;7.17;85.42
55068;BME280;40965;52.368;9.712;2024-03-06T10:20:43;101713.56;;;7.33;85.32
55068;BME280;40965;52.368;9.712;2024-03-06T10:23:10;101708.66;;;7.49;84.86
55068;BME280;40965;52.368;9.712;2024-03-06T10:25:38;101702.13;;;7.69;82.74
55068;BME280;40965;52.368;9.712;2024-03-06T10:28:10;101712.34;;;7.60;80.98
55068;BME280;40965;52.368;9.712;2024-03-06T10:30:39;101711.47;;;7.59;81.25
55068;BME280;40965;52.368;9.712;2024-03-06T10:33:10;101709.47;;;7.89;80.36
55068;BME280;40965;52.368;9.712;2024-03-06T10:35:40;101715.53;;;7.89;80.11
55068;BME280;40965;52.368;9.712;2024-03-06T10:38:13;101720.00;;;7.95;78.60
55068;BME280;40965;52.368;9.712;2024-03-06T10:40:43;101718.47;;;8.06;77.21
55068;BME280;40965;52.368;9.712;2024-03-06T10:43:11;101728.88;;;8.05;78.19
55068;BME280;40965;52.368;9.712;2024-03-06T10:45:49;101724.19;;;8.34;76.62
55068;BME280;40965;52.368;9.712;2024-03-06T10:48:19;101725.78;;;8.26;76.11
55068;BME280;40965;52.368;9.712;2024-03-06T10:50:49;101722.88;;;8.58;75.62
55068;BME280;40965;52.368;9.712;2024-03-06T10:53:17;101718.25;;;8.98;73.33
55068;BME280;40965;52.368;9.712;2024-03-06T10:55:46;101721.31;;;8.69;71.46
55068;BME280;40965;52.368;9.712;2024-03-06T10:58:16;101707.44;;;8.73;71.97
55068;BME280;40965;52.368;9.712;2024-03-06T11:00:47;101730.50;;;8.46;71.07
55068;BME280;40965;52.368;9.712;2024-03-06T11:03:17;101726.50;;;8.66;71.35
55068;BME280;40965;52.368;9.712;2024-03-06T11:05:52;101727.16;;;9.09;70.52
55068;BME280;40965;52.368;9.712;2024-03-06T11:08:22;101717.81;;;9.27;67.93
55068;BME280;40965;52.368;9.712;2024-03-06T11:10:51;101721.63;;;9.52;67.72
55068;BME280;40965;52.368;9.712;2024-03-06T11:13:23;101728.22;;;9.25;67.27
55068;BME280;40965;52.368;9.712;2024-03-06T11:15:52;101731.75;;;9.27;67.61
55068;BME280;40965;52.368;9.712;2024-03-06T11:23:32;101735.78;;;9.04;68.85
55068;BME280;40965;52.368;9.712;2024-03-06T11:26:03;101734.03;;;9.04;67.80
55068;BME280;40965;52.368;9.712;2024-03-06T11:31:07;101736.75;;;9.12;69.32
55068;BME280;40965;52.368;9.712;2024-03-06T11:33:43;101742.59;;;8.94;68.60
55068;BME280;40965;52.368;9.712;2024-03-06T11:38:51;101746.41;;;8.61;69.99
55068;BME280;40965;52.368;9.712;2024-03-06T11:41:46;101732.91;;;8.87;69.22
55068;BME280;40965;52.368;9.712;2024-03-06T11:44:21;101734.94;;;9.05;67.81
55068;BME280;40965;52.368;9.712;2024-03-06T11:47:16;101733.91;;;8.97;68.79
55068;BME280;40965;52.368;9.712;2024-03-06T11:49:46;101745.56;;;8.60;67.33
55068;BME280;40965;52.368;9.712;2024-03-06T11:52:20;101739.53;;;8.66;67.99
55068;BME280;40965;52.368;9.712;2024-03-06T11:54:51;101735.13;;;8.60;66.62
55068;BME280;40965;52.368;9.712;2024-03-06T11:57:26;101730.41;;;8.93;66.23
55068;BME280;40965;52.368;9.712;2024-03-06T12:03:43;101735.34;;;8.76;64.29
55068;BME280;40965;52.368;9.712;2024-03-06T12:06:16;101737.81;;;8.67;64.34
55068;BME280;40965;52.368;9.712;2024-03-06T12:08:44;101742.84;;;8.54;64.59
55068;BME280;40965;52.368;9.712;2024-03-06T12:11:13;101744.94;;;8.78;65.33
55068;BME280;40965;52.368;9.712;2024-03-06T12:13:45;101739.03;;;8.89;65.13
55068;BME280;40965;52.368;9.712;2024-03-06T12:16:13;101741.84;;;9.01;64.52
55068;BME280;40965;52.368;9.712;2024-03-06T12:18:43;101752.88;;;8.83;64.22
55068;BME280;40965;52.368;9.712;2024-03-06T12:21:12;101746.72;;;8.81;64.48
55068;BME280;40965;52.368;9.712;2024-03-06T12:23:41;101745.16;;;8.91;64.37
55068;BME280;40965;52.368;9.712;2024-03-06T12:26:09;101743.53;;;8.99;64.45
55068;BME280;40965;52.368;9.712;2024-03-06T12:28:38;101741.75;;;8.97;63.84
55068;BME280;40965;52.368;9.712;2024-03-06T12:31:13;101749.00;;;9.15;63.43
55068;BME280;40965;52.368;9.712;2024-03-06T12:33:42;101748.03;;;9.08;63.22
55068;BME280;40965;52.368;9.712;2024-03-06T12:36:08;101747.00;;;8.98;63.00
55068;BME280;40965;52.368;9.712;2024-03-06T12:38:37;101752.19;;;8.97;63.84
55068;BME280;40965;52.368;9.712;2024-03-06T12:41:05;101751.91;;;8.78;63.92
55068;BME280;40965;52.368;9.712;2024-03-06T12:43:33;101742.69;;;9.02;63.73
55068;BME280;40965;52.368;9.712;2024-03-06T12:46:02;101742.00;;;9.14;63.13
55068;BME280;40965;52.368;9.712;2024-03-06T12:48:30;101745.06;;;8.85;63.02
55068;BME280;40965;52.368;9.712;2024-03-06T12:50:58;101744.31;;;8.92;63.80
55068;BME280;40965;52.368;9.712;2024-03-06T12:53:30;101739.47;;;9.20;63.61
55068;BME280;40965;52.368;9.712;2024-03-06T12:56:00;101735.44;;;9.43;62.28
55068;BME280;40965;52.368;9.712;2024-03-06T12:58:28;101732.84;;;9.43;62.21
55068;BME280;40965;52.368;9.712;2024-03-06T13:00:57;101743.63;;;9.70;61.97
55068;BME280;40965;52.368;9.712;2024-03-06T13:03:24;101727.50;;;10.06;61.96
55068;BME280;40965;52.368;9.712;2024-03-06T13:05:56;101738.66;;;9.93;60.58
55068;BME280;40965;52.368;9.712;2024-03-06T13:08:23;101730.94;;;10.04;61.26
55068;BME280;40965;52.368;9.712;2024-03-06T13:10:51;101731.81;;;10.03;60.48
55068;BME280;40965;52.368;9.712;2024-03-06T13:13:18;101729.97;;;9.96;61.17
55068;BME280;40965;52.368;9.712;2024-03-06T13:15:50;101736.47;;;9.55;61.30
55068;BME280;40965;52.368;9.712;2024-03-06T13:18:17;101726.94;;;10.35;59.64
55068;BME280;40965;52.368;9.712;2024-03-06T13:20:45;101729.09;;;10.87;58.21
55068;BME280;40965;52.368;9.712;2024-03-06T13:23:12;101729.84;;;10.69;58.04
55068;BME280;40965;52.368;9.712;2024-03-06T13:25:39;101731.47;;;10.56;59.05
55068;BME280;40965;52.368;9.712;2024-03-06T13:28:08;101733.00;;;10.34;59.29
55068;BME280;40965;52.368;9.712;2024-03-06T13:30:37;101730.63;;;10.59;59.20
55068;BME280;40965;52.368;9.712;2024-03-06T13:33:05;101730.00;;;10.92;58.93
55068;BME280;40965;52.368;9.712;2024-03-06T13:35:43;101738.88;;;11.15;58.03
55068;BME280;40965;52.368;9.712;2024-03-06T13:38:11;101737.41;;;11.72;57.35
55068;BME280;40965;52.368;9.712;2024-03-06T13:40:45;101741.00;;;11.96;56.84
55068;BME280;40965;52.368;9.712;2024-03-06T13:43:16;101741.00;;;11.96;56.23
55068;BME280;40965;52.368;9.712;2024-03-06T13:45:49;101740.81;;;11.51;56.21
55068;BME280;40965;52.368;9.712;2024-03-06T13:48:19;101751.13;;;11.20;58.08
55068;BME280;40965;52.368;9.712;2024-03-06T13:50:48;101743.28;;;11.23;57.23
55068;BME280;40965;52.368;9.712;2024-03-06T13:53:15;101745.94;;;11.27;58.76
55068;BME280;40965;52.368;9.712;2024-03-06T13:55:43;101746.34;;;10.62;59.16
55068;BME280;40965;52.368;9.712;2024-03-06T13:58:12;101736.84;;;10.72;59.52
55068;BME280;40965;52.368;9.712;2024-03-06T14:00:40;101740.75;;;11.39;57.96
55068;BME280;40965;52.368;9.712;2024-03-06T14:03:08;101739.22;;;11.92;56.79
55068;BME280;40965;52.368;9.712;2024-03-06T14:05:37;101734.97;;;12.88;55.67
55068;BME280;40965;52.368;9.712;2024-03-06T14:08:05;101734.03;;;13.03;52.45
55068;BME280;40965;52.368;9.712;2024-03-06T14:10:33;101733.09;;;13.46;52.19
55068;BME280;40965;52.368;9.712;2024-03-06T14:13:02;101733.56;;;14.26;51.91
55068;BME280;40965;52.368;9.712;2024-03-06T14:15:31;101735.25;;;14.36;49.34
55068;BME280;40965;52.368;9.712;2024-03-06T14:17:59;101739.25;;;13.48;50.97
55068;BME280;40965;52.368;9.712;2024-03-06T14:20:37;101731.63;;;14.52;49.59
55068;BME280;40965;52.368;9.712;2024-03-06T14:23:16;101732.66;;;15.28;49.14
55068;BME280;40965;52.368;9.712;2024-03-06T14:25:43;101728.59;;;15.74;48.31
55068;BME280;40965;52.368;9.712;2024-03-06T14:28:13;101726.06;;;15.66;45.95
55068;BME280;40965;52.368;9.712;2024-03-06T14:30:40;101730.22;;;15.87;46.75
55068;BME280;40965;52.368;9.712;2024-03-06T14:33:07;101731.53;;;15.50;46.96
55068;BME280;40965;52.368;9.712;2024-03-06T14:35:37;101739.19;;;14.94;47.32
55068;BME280;40965;52.368;9.712;2024-03-06T14:38:06;101734.56;;;15.13;47.14
55068;BME280;40965;52.368;9.712;2024-03-06T14:40:36;101733.66;;;15.19;47.49
55068;BME280;40965;52.368;9.712;2024-03-06T14:43:04;101734.38;;;14.34;47.02
55068;BME280;40965;52.368;9.712;2024-03-06T14:45:45;101735.44;;;14.08;47.39
55068;BME280;40965;52.368;9.712;2024-03-06T14:48:13;101742.69;;;13.63;49.86
55068;BME280;40965;52.368;9.712;2024-03-06T14:50:43;101740.16;;;13.08;50.01
55068;BME280;40965;52.368;9.712;2024-03-06T14:53:13;101732.91;;;13.86;49.71
55068;BME280;40965;52.368;9.712;2024-03-06T14:55:45;101740.97;;;13.48;49.61
55068;BME280;40965;52.368;9.712;2024-03-06T14:58:14;101732.28;;;13.01;50.76
55068;BME280;40965;52.368;9.712;2024-03-06T15:00:47;101733.97;;;13.36;49.72
55068;BME280;40965;52.368;9.712;2024-03-06T15:03:18;101740.19;;;13.04;49.66
55068;BME280;40965;52.368;9.712;2024-03-06T15:05:46;101737.38;;;13.72;49.39
55068;BME280;40965;52.368;9.712;2024-03-06T15:08:15;101739.81;;;14.12;48.72
55068;BME280;40965;52.368;9.712;2024-03-06T15:10:43;101731.78;;;14.26;48.47
55068;BME280;40965;52.368;9.712;2024-03-06T15:13:20;101735.69;;;13.54;49.11
55068;BME280;40965;52.368;9.712;2024-03-06T15:15:48;101733.94;;;13.59;49.38
55068;BME280;40965;52.368;9.712;2024-03-06T15:18:18;101734.78;;;13.63;48.40
55068;BME280;40965;52.368;9.712;2024-03-06T15:20:45;101732.75;;;14.14;48.78
55068;BME280;40965;52.368;9.712;2024-03-06T15:23:12;101730.59;;;14.72;47.93
55068;BME280;40965;52.368;9.712;2024-03-06T15:25:42;101737.91;;;14.30;48.46
55068;BME280;40965;52.368;9.712;2024-03-06T15:28:10;101739.69;;;14.29;47.98
55068;BME280;40965;52.368;9.712;2024-03-06T15:30:37;101735.81;;;14.80;46.66
55068;BME280;40965;52.368;9.712;2024-03-06T15:33:07;101746.19;;;13.62;48.51
55068;BME280;40965;52.368;9.712;2024-03-06T15:35:34;101737.16;;;14.09;48.81
55068;BME280;40965;52.368;9.712;2024-03-06T15:38:03;101748.69;;;13.91;47.43
55068;BME280;40965;52.368;9.712;2024-03-06T15:40:36;101742.47;;;14.01;47.86
55068;BME280;40965;52.368;9.712;2024-03-06T15:43:03;101743.44;;;13.91;48.44
55068;BME280;40965;52.368;9.712;2024-03-06T15:45:30;101759.50;;;12.67;50.00
55068;BME280;40965;52.368;9.712;2024-03-06T15:47:57;101753.31;;;12.27;51.08
55068;BME280;40965;52.368;9.712;2024-03-06T15:50:26;101752.16;;;11.49;52.89
55068;BME280;40965;52.368;9.712;2024-03-06T15:52:53;101755.97;;;10.63;55.41
55068;BME280;40965;52.368;9.712;2024-03-06T15:55:27;101764.91;;;10.02;57.46
55068;BME280;40965;52.368;9.712;2024-03-06T15:58:07;101767.38;;;9.87;58.12
55068;BME280;40965;52.368;9.712;2024-03-06T16:00:37;101764.69;;;9.82;57.76
55068;BME280;40965;52.368;9.712;2024-03-06T16:03:07;101769.50;;;9.50;58.79
55068;BME280;40965;52.368;9.712;2024-03-06T16:05:38;101765.72;;;9.27;59.59
55068;BME280;40965;52.368;9.712;2024-03-06T16:08:08;101772.75;;;9.33;59.72
55068;BME280;40965;52.368;9.712;2024-03-06T16:10:39;101777.88;;;9.25;60.07
55068;BME280;40965;52.368;9.712;2024-03-06T16:13:06;101783.75;;;9.10;60.87
55068;BME280;40965;52.368;9.712;2024-03-06T16:15:36;101782.84;;;9.08;61.01
55068;BME280;40965;52.368;9.712;2024-03-06T16:18:06;101783.59;;;9.00;61.48
55068;BME280;40965;52.368;9.712;2024-03-06T16:20:39;101792.19;;;8.94;61.79
55068;BME280;40965;52.368;9.712;2024-03-06T16:23:13;101792.28;;;8.99;61.64
55068;BME280;40965;52.368;9.712;2024-03-06T16:26:35;101789.47;;;8.86;62.11
55068;BME280;40965;52.368;9.712;2024-03-06T16:28:58;101797.16;;;8.77;62.18
55068;BME280;40965;52.368;9.712;2024-03-06T16:31:30;101804.97;;;8.77;61.51
55068;BME280;40965;52.368;9.712;2024-03-06T16:34:05;101802.22;;;8.69;61.51
55068;BME280;40965;52.368;9.712;2024-03-06T16:36:32;101805.75;;;8.70;61.62
55068;BME280;40965;52.368;9.712;2024-03-06T16:39:00;101809.91;;;8.60;62.80
55068;BME280;40965;52.368;9.712;2024-03-06T16:41:31;101806.34;;;8.55;62.90
55068;BME280;40965;52.368;9.712;2024-03-06T16:43:58;101814.13;;;8.52;62.26
55068;BME280;40965;52.368;9.712;2024-03-06T16:46:25;101813.03;;;8.42;62.81